sensor_id;sensor_type;location;lat;lon;timestamp;pressure;altitude;pressure_sealevel;temperature
77599;BMP280;66758;52.078;5.070;2023-07-22T00:00:25;101571.03;;;13.88
77599;BMP280;66758;52.078;5.070;2023-07-22T00:02:51;101575.63;;;13.84
77599;BMP280;66758;52.078;5.070;2023-07-22T00:05:16;101560.81;;;13.89
77599;BMP280;66758;52.078;5.070;2023-07-22T00:07:47;101560.81;;;13.89
77599;BMP280;66758;52.078;5.070;2023-07-22T00:10:12;101576.53;;;13.88
77599;BMP280;66758;52.078;5.070;2023-07-22T00:12:38;101570.75;;;13.93
77599;BMP280;66758;52.078;5.070;2023-07-22T00:15:03;101570.13;;;13.84
77599;BMP280;66758;52.078;5.070;2023-07-22T00:17:29;101566.94;;;13.82
77599;BMP280;66758;52.078;5.070;2023-07-22T00:19:54;101559.72;;;13.93
77599;BMP280;66758;52.078;5.070;2023-07-22T00:22:21;101560.53;;;13.78
77599;BMP280;66758;52.078;5.070;2023-07-22T00:24:46;101566.16;;;13.82
77599;BMP280;66758;52.078;5.070;2023-07-22T00:27:12;101558.69;;;13.82
77599;BMP280;66758;52.078;5.070;2023-07-22T00:29:37;101562.66;;;13.85
77599;BMP280;66758;52.078;5.070;2023-07-22T00:32:04;101552.44;;;13.85
77599;BMP280;66758;52.078;5.070;2023-07-22T00:34:32;101551.84;;;13.76
77599;BMP280;66758;52.078;5.070;2023-07-22T00:36:57;101549.97;;;13.80
77599;BMP280;66758;52.078;5.070;2023-07-22T00:39:23;101545.19;;;13.77
77599;BMP280;66758;52.078;5.070;2023-07-22T00:41:48;101550.59;;;13.73
77599;BMP280;66758;52.078;5.070;2023-07-22T00:44:13;101547.84;;;13.73
77599;BMP280;66758;52.078;5.070;2023-07-22T00:46:39;101550.94;;;13.72
77599;BMP280;66758;52.078;5.070;2023-07-22T00:49:08;101548.94;;;13.69
77599;BMP280;66758;52.078;5.070;2023-07-22T00:51:34;101544.56;;;13.68
77599;BMP280;66758;52.078;5.070;2023-07-22T00:53:59;101547.69;;;13.66
77599;BMP280;66758;52.078;5.070;2023-07-22T00:56:25;101545.72;;;13.67
77599;BMP280;66758;52.078;5.070;2023-07-22T00:58:51;101535.63;;;13.71
77599;BMP280;66758;52.078;5.070;2023-07-22T01:01:17;101535.78;;;13.62
77599;BMP280;66758;52.078;5.070;2023-07-22T01:03:42;101538.63;;;13.66
77599;BMP280;66758;52.078;5.070;2023-07-22T01:06:09;101530.09;;;13.71
77599;BMP280;66758;52.078;5.070;2023-07-22T01:08:35;101539.41;;;13.66
77599;BMP280;66758;52.078;5.070;2023-07-22T01:11:00;101532.16;;;13.58
77599;BMP280;66758;52.078;5.070;2023-07-22T01:13:26;101524.25;;;13.57
77599;BMP280;66758;52.078;5.070;2023-07-22T01:15:52;101521.16;;;13.58
77599;BMP280;66758;52.078;5.070;2023-07-22T01:18:18;101518.75;;;13.57
77599;BMP280;66758;52.078;5.070;2023-07-22T01:20:45;101516.69;;;13.69
77599;BMP280;66758;52.078;5.070;2023-07-22T01:23:11;101521.16;;;13.58
77599;BMP280;66758;52.078;5.070;2023-07-22T01:25:36;101519.91;;;13.56
77599;BMP280;66758;52.078;5.070;2023-07-22T01:28:02;101518.56;;;13.50
77599;BMP280;66758;52.078;5.070;2023-07-22T01:30:27;101511.81;;;13.47
77599;BMP280;66758;52.078;5.070;2023-07-22T01:32:53;101513.41;;;13.48
77599;BMP280;66758;52.078;5.070;2023-07-22T01:35:18;101513.34;;;13.45
77599;BMP280;66758;52.078;5.070;2023-07-22T01:37:46;101519.28;;;13.47
77599;BMP280;66758;52.078;5.070;2023-07-22T01:40:12;101521.59;;;13.45
77599;BMP280;66758;52.078;5.070;2023-07-22T01:42:41;101516.28;;;13.52
77599;BMP280;66758;52.078;5.070;2023-07-22T01:45:07;101521.41;;;13.53
77599;BMP280;66758;52.078;5.070;2023-07-22T01:47:37;101515.09;;;13.53
77599;BMP280;66758;52.078;5.070;2023-07-22T01:50:03;101510.25;;;13.46
77599;BMP280;66758;52.078;5.070;2023-07-22T01:52:29;101507.09;;;13.48
77599;BMP280;66758;52.078;5.070;2023-07-22T01:54:54;101506.56;;;13.42
77599;BMP280;66758;52.078;5.070;2023-07-22T01:57:20;101503.56;;;13.47
77599;BMP280;66758;52.078;5.070;2023-07-22T01:59:45;101502.75;;;13.47
77599;BMP280;66758;52.078;5.070;2023-07-22T02:02:11;101499.75;;;13.52
77599;BMP280;66758;52.078;5.070;2023-07-22T02:04:36;101507.38;;;13.43
77599;BMP280;66758;52.078;5.070;2023-07-22T02:07:01;101504.34;;;13.48
77599;BMP280;66758;52.078;5.070;2023-07-22T02:09:27;101498.78;;;13.44
77599;BMP280;66758;52.078;5.070;2023-07-22T02:11:52;101496.38;;;13.43
77599;BMP280;66758;52.078;5.070;2023-07-22T02:14:19;101501.06;;;13.42
77599;BMP280;66758;52.078;5.070;2023-07-22T02:16:44;101498.84;;;13.48
77599;BMP280;66758;52.078;5.070;2023-07-22T02:19:09;101499.56;;;13.45
77599;BMP280;66758;52.078;5.070;2023-07-22T02:21:35;101497.19;;;13.43
77599;BMP280;66758;52.078;5.070;2023-07-22T02:24:00;101497.06;;;13.40
77599;BMP280;66758;52.078;5.070;2023-07-22T02:26:26;101484.38;;;13.35
77599;BMP280;66758;52.078;5.070;2023-07-22T02:28:51;101480.94;;;13.38
77599;BMP280;66758;52.078;5.070;2023-07-22T02:31:16;101479.06;;;13.42
77599;BMP280;66758;52.078;5.070;2023-07-22T02:33:42;101479.84;;;13.43
77599;BMP280;66758;52.078;5.070;2023-07-22T02:36:07;101474.63;;;13.38
77599;BMP280;66758;52.078;5.070;2023-07-22T02:38:33;101485.19;;;13.35
77599;BMP280;66758;52.078;5.070;2023-07-22T02:41:05;101467.59;;;13.40
77599;BMP280;66758;52.078;5.070;2023-07-22T02:43:33;101467.78;;;13.31
77599;BMP280;66758;52.078;5.070;2023-07-22T02:46:03;101479.16;;;13.30
77599;BMP280;66758;52.078;5.070;2023-07-22T02:48:30;101482.72;;;13.30
77599;BMP280;66758;52.078;5.070;2023-07-22T02:51:04;101472.16;;;13.32
77599;BMP280;66758;52.078;5.070;2023-07-22T02:53:30;101477.22;;;13.30
77599;BMP280;66758;52.078;5.070;2023-07-22T02:55:57;101473.19;;;13.28
77599;BMP280;66758;52.078;5.070;2023-07-22T02:58:22;101477.03;;;13.23
77599;BMP280;66758;52.078;5.070;2023-07-22T03:00:48;101474.97;;;13.36
77599;BMP280;66758;52.078;5.070;2023-07-22T03:03:13;101481.09;;;13.29
77599;BMP280;66758;52.078;5.070;2023-07-22T03:05:38;101479.78;;;13.23
77599;BMP280;66758;52.078;5.070;2023-07-22T03:08:04;101474.53;;;13.34
77599;BMP280;66758;52.078;5.070;2023-07-22T03:10:29;101480.94;;;13.38
77599;BMP280;66758;52.078;5.070;2023-07-22T03:12:55;101477.81;;;13.40
77599;BMP280;66758;52.078;5.070;2023-07-22T03:15:24;101490.22;;;13.33
77599;BMP280;66758;52.078;5.070;2023-07-22T03:17:53;101484.72;;;13.33
77599;BMP280;66758;52.078;5.070;2023-07-22T03:20:19;101486.34;;;13.34
77599;BMP280;66758;52.078;5.070;2023-07-22T03:22:45;101483.59;;;13.34
77599;BMP280;66758;52.078;5.070;2023-07-22T03:25:11;101480.56;;;13.40
77599;BMP280;66758;52.078;5.070;2023-07-22T03:27:37;101482.88;;;13.38
77599;BMP280;66758;52.078;5.070;2023-07-22T03:30:04;101486.88;;;13.40
77599;BMP280;66758;52.078;5.070;2023-07-22T03:32:32;101484.09;;;13.40
77599;BMP280;66758;52.078;5.070;2023-07-22T03:34:57;101492.56;;;13.31
77599;BMP280;66758;52.078;5.070;2023-07-22T03:37:22;101489.81;;;13.31
77599;BMP280;66758;52.078;5.070;2023-07-22T03:39:48;101487.06;;;13.31
77599;BMP280;66758;52.078;5.070;2023-07-22T03:42:13;101482.53;;;13.39
77599;BMP280;66758;52.078;5.070;2023-07-22T03:44:39;101489.38;;;13.45
77599;BMP280;66758;52.078;5.070;2023-07-22T03:47:06;101482.59;;;13.43
77599;BMP280;66758;52.078;5.070;2023-07-22T03:49:31;101482.44;;;13.51
77599;BMP280;66758;52.078;5.070;2023-07-22T03:51:56;101478.44;;;13.49
77599;BMP280;66758;52.078;5.070;2023-07-22T03:54:22;101491.22;;;13.57
77599;BMP280;66758;52.078;5.070;2023-07-22T03:56:47;101490.06;;;13.58
77599;BMP280;66758;52.078;5.070;2023-07-22T03:59:12;101486.84;;;13.56
77599;BMP280;66758;52.078;5.070;2023-07-22T04:01:38;101486.56;;;13.61
77599;BMP280;66758;52.078;5.070;2023-07-22T04:04:03;101496.59;;;13.69
77599;BMP280;66758;52.078;5.070;2023-07-22T04:06:29;101501.47;;;13.75
77599;BMP280;66758;52.078;5.070;2023-07-22T04:08:54;101505.75;;;13.73
77599;BMP280;66758;52.078;5.070;2023-07-22T04:11:20;101499.34;;;13.69
77599;BMP280;66758;52.078;5.070;2023-07-22T04:13:45;101501.75;;;13.70
77599;BMP280;66758;52.078;5.070;2023-07-22T04:16:11;101496.59;;;13.69
77599;BMP280;66758;52.078;5.070;2023-07-22T04:18:36;101498.56;;;13.68
77599;BMP280;66758;52.078;5.070;2023-07-22T04:21:02;101496.59;;;13.69
77599;BMP280;66758;52.078;5.070;2023-07-22T04:23:27;101489.16;;;13.69
77599;BMP280;66758;52.078;5.070;2023-07-22T04:25:53;101493.56;;;13.74
77599;BMP280;66758;52.078;5.070;2023-07-22T04:28:18;101492.41;;;13.75
77599;BMP280;66758;52.078;5.070;2023-07-22T04:30:57;101490.47;;;13.75
77599;BMP280;66758;52.078;5.070;2023-07-22T04:33:24;101492.66;;;13.86
77599;BMP280;66758;52.078;5.070;2023-07-22T04:35:50;101498.25;;;13.89
77599;BMP280;66758;52.078;5.070;2023-07-22T04:38:16;101491.31;;;13.95
77599;BMP280;66758;52.078;5.070;2023-07-22T04:40:44;101495.56;;;13.93
77599;BMP280;66758;52.078;5.070;2023-07-22T04:43:10;101488.97;;;13.97
77599;BMP280;66758;52.078;5.070;2023-07-22T04:45:35;101490.28;;;14.03
77599;BMP280;66758;52.078;5.070;2023-07-22T04:48:02;101480.66;;;14.13
77599;BMP280;66758;52.078;5.070;2023-07-22T04:50:27;101487.88;;;14.21
77599;BMP280;66758;52.078;5.070;2023-07-22T04:52:54;101483.63;;;14.24
77599;BMP280;66758;52.078;5.070;2023-07-22T04:55:20;101489.56;;;14.26
77599;BMP280;66758;52.078;5.070;2023-07-22T04:57:45;101480.88;;;14.24
77599;BMP280;66758;52.078;5.070;2023-07-22T05:00:12;101488.03;;;14.28
77599;BMP280;66758;52.078;5.070;2023-07-22T05:02:46;101488.28;;;14.39
77599;BMP280;66758;52.078;5.070;2023-07-22T05:05:16;101486.28;;;14.39
77599;BMP280;66758;52.078;5.070;2023-07-22T05:07:42;101471.13;;;14.49
77599;BMP280;66758;52.078;5.070;2023-07-22T05:10:08;101483.81;;;14.53
77599;BMP280;66758;52.078;5.070;2023-07-22T05:12:38;101478.00;;;14.58
77599;BMP280;66758;52.078;5.070;2023-07-22T05:15:04;101480.53;;;14.67
77599;BMP280;66758;52.078;5.070;2023-07-22T05:17:30;101481.38;;;14.71
77599;BMP280;66758;52.078;5.070;2023-07-22T05:19:57;101485.13;;;14.82
77599;BMP280;66758;52.078;5.070;2023-07-22T05:22:22;101480.19;;;14.91
77599;BMP280;66758;52.078;5.070;2023-07-22T05:24:48;101479.50;;;14.98
77599;BMP280;66758;52.078;5.070;2023-07-22T05:27:13;101483.78;;;14.95
77599;BMP280;66758;52.078;5.070;2023-07-22T05:29:38;101482.19;;;14.94
77599;BMP280;66758;52.078;5.070;2023-07-22T05:32:04;101481.44;;;14.97
77599;BMP280;66758;52.078;5.070;2023-07-22T05:34:30;101484.66;;;14.99
77599;BMP280;66758;52.078;5.070;2023-07-22T05:36:55;101482.00;;;15.07
77599;BMP280;66758;52.078;5.070;2023-07-22T05:39:20;101485.56;;;15.07
77599;BMP280;66758;52.078;5.070;2023-07-22T05:41:46;101491.28;;;15.18
77599;BMP280;66758;52.078;5.070;2023-07-22T05:44:11;101485.91;;;15.28
77599;BMP280;66758;52.078;5.070;2023-07-22T05:46:37;101488.69;;;15.28
77599;BMP280;66758;52.078;5.070;2023-07-22T05:49:03;101483.41;;;15.20
77599;BMP280;66758;52.078;5.070;2023-07-22T05:51:29;101489.91;;;15.31
77599;BMP280;66758;52.078;5.070;2023-07-22T05:53:54;101487.56;;;15.33
77599;BMP280;66758;52.078;5.070;2023-07-22T05:56:20;101476.78;;;15.51
77599;BMP280;66758;52.078;5.070;2023-07-22T05:58:45;101487.16;;;15.57
77599;BMP280;66758;52.078;5.070;2023-07-22T06:01:11;101487.09;;;15.54
77599;BMP280;66758;52.078;5.070;2023-07-22T06:03:37;101487.91;;;15.58
77599;BMP280;66758;52.078;5.070;2023-07-22T06:06:03;101487.25;;;15.68
77599;BMP280;66758;52.078;5.070;2023-07-22T06:08:29;101478.75;;;15.80
77599;BMP280;66758;52.078;5.070;2023-07-22T06:10:56;101483.59;;;15.87
77599;BMP280;66758;52.078;5.070;2023-07-22T06:13:21;101473.88;;;16.00
77599;BMP280;66758;52.078;5.070;2023-07-22T06:15:47;101481.03;;;16.04
77599;BMP280;66758;52.078;5.070;2023-07-22T06:18:12;101488.19;;;16.09
77599;BMP280;66758;52.078;5.070;2023-07-22T06:20:38;101472.19;;;16.25
77599;BMP280;66758;52.078;5.070;2023-07-22T06:23:04;101476.97;;;16.28
77599;BMP280;66758;52.078;5.070;2023-07-22T06:25:30;101477.81;;;16.32
77599;BMP280;66758;52.078;5.070;2023-07-22T06:27:55;101479.16;;;16.45
77599;BMP280;66758;52.078;5.070;2023-07-22T06:30:21;101476.44;;;16.52
77599;BMP280;66758;52.078;5.070;2023-07-22T06:32:46;101480.47;;;16.62
77599;BMP280;66758;52.078;5.070;2023-07-22T06:35:12;101466.00;;;16.76
77599;BMP280;66758;52.078;5.070;2023-07-22T06:37:38;101471.19;;;16.81
77599;BMP280;66758;52.078;5.070;2023-07-22T06:40:04;101467.19;;;16.78
77599;BMP280;66758;52.078;5.070;2023-07-22T06:42:30;101470.84;;;16.89
77599;BMP280;66758;52.078;5.070;2023-07-22T06:44:55;101470.41;;;16.87
77599;BMP280;66758;52.078;5.070;2023-07-22T06:47:21;101468.91;;;16.93
77599;BMP280;66758;52.078;5.070;2023-07-22T06:49:46;101468.63;;;17.09
77599;BMP280;66758;52.078;5.070;2023-07-22T06:52:13;101470.66;;;17.16
77599;BMP280;66758;52.078;5.070;2023-07-22T06:54:39;101475.78;;;17.17
77599;BMP280;66758;52.078;5.070;2023-07-22T06:57:04;101472.97;;;17.06
77599;BMP280;66758;52.078;5.070;2023-07-22T06:59:31;101468.72;;;17.20
77599;BMP280;66758;52.078;5.070;2023-07-22T07:01:57;101459.25;;;17.28
77599;BMP280;66758;52.078;5.070;2023-07-22T07:04:23;101458.00;;;17.18
77599;BMP280;66758;52.078;5.070;2023-07-22T07:06:52;101466.38;;;17.29
77599;BMP280;66758;52.078;5.070;2023-07-22T07:09:17;101466.03;;;17.37
77599;BMP280;66758;52.078;5.070;2023-07-22T07:11:43;101463.63;;;17.32
77599;BMP280;66758;52.078;5.070;2023-07-22T07:14:08;101466.00;;;17.30
77599;BMP280;66758;52.078;5.070;2023-07-22T07:16:33;101459.34;;;17.42
77599;BMP280;66758;52.078;5.070;2023-07-22T07:19:00;101469.28;;;17.46
77599;BMP280;66758;52.078;5.070;2023-07-22T07:21:27;101466.59;;;17.64
77599;BMP280;66758;52.078;5.070;2023-07-22T07:23:53;101464.72;;;17.86
77599;BMP280;66758;52.078;5.070;2023-07-22T07:26:19;101466.28;;;17.83
77599;BMP280;66758;52.078;5.070;2023-07-22T07:28:46;101465.91;;;17.95
77599;BMP280;66758;52.078;5.070;2023-07-22T07:31:12;101477.47;;;18.08
77599;BMP280;66758;52.078;5.070;2023-07-22T07:33:37;101466.41;;;18.22
77599;BMP280;66758;52.078;5.070;2023-07-22T07:36:03;101468.69;;;17.92
77599;BMP280;66758;52.078;5.070;2023-07-22T07:38:29;101462.44;;;18.09
77599;BMP280;66758;52.078;5.070;2023-07-22T07:41:13;101460.13;;;18.54
77599;BMP280;66758;52.078;5.070;2023-07-22T07:43:42;101468.78;;;18.20
77599;BMP280;66758;52.078;5.070;2023-07-22T07:46:18;101458.50;;;18.31
77599;BMP280;66758;52.078;5.070;2023-07-22T07:48:46;101456.94;;;18.41
77599;BMP280;66758;52.078;5.070;2023-07-22T07:51:13;101462.50;;;18.73
77599;BMP280;66758;52.078;5.070;2023-07-22T07:53:40;101461.69;;;18.62
77599;BMP280;66758;52.078;5.070;2023-07-22T07:56:06;101458.94;;;18.69
77599;BMP280;66758;52.078;5.070;2023-07-22T07:58:32;101463.31;;;18.84
77599;BMP280;66758;52.078;5.070;2023-07-22T08:00:57;101468.44;;;18.89
77599;BMP280;66758;52.078;5.070;2023-07-22T08:03:23;101464.84;;;19.10
77599;BMP280;66758;52.078;5.070;2023-07-22T08:05:49;101467.59;;;19.27
77599;BMP280;66758;52.078;5.070;2023-07-22T08:08:14;101458.13;;;19.00
77599;BMP280;66758;52.078;5.070;2023-07-22T08:10:40;101463.22;;;19.30
77599;BMP280;66758;52.078;5.070;2023-07-22T08:13:07;101469.59;;;19.20
77599;BMP280;66758;52.078;5.070;2023-07-22T08:15:32;101465.97;;;19.41
77599;BMP280;66758;52.078;5.070;2023-07-22T08:17:59;101460.78;;;19.50
77599;BMP280;66758;52.078;5.070;2023-07-22T08:20:25;101461.63;;;19.32
77599;BMP280;66758;52.078;5.070;2023-07-22T08:22:50;101457.66;;;19.33
77599;BMP280;66758;52.078;5.070;2023-07-22T08:25:15;101464.66;;;19.70
77599;BMP280;66758;52.078;5.070;2023-07-22T08:27:41;101456.44;;;19.45
77599;BMP280;66758;52.078;5.070;2023-07-22T08:30:07;101467.03;;;19.75
77599;BMP280;66758;52.078;5.070;2023-07-22T08:32:33;101464.56;;;19.91
77599;BMP280;66758;52.078;5.070;2023-07-22T08:34:58;101465.53;;;20.25
77599;BMP280;66758;52.078;5.070;2023-07-22T08:37:24;101463.78;;;19.91
77599;BMP280;66758;52.078;5.070;2023-07-22T08:39:50;101464.19;;;19.82
77599;BMP280;66758;52.078;5.070;2023-07-22T08:42:18;101462.09;;;20.07
77599;BMP280;66758;52.078;5.070;2023-07-22T08:44:48;101462.66;;;20.40
77599;BMP280;66758;52.078;5.070;2023-07-22T08:47:15;101452.47;;;20.19
77599;BMP280;66758;52.078;5.070;2023-07-22T08:49:46;101453.59;;;20.25
77599;BMP280;66758;52.078;5.070;2023-07-22T08:52:17;101464.47;;;20.60
77599;BMP280;66758;52.078;5.070;2023-07-22T08:54:43;101458.41;;;20.73
77599;BMP280;66758;52.078;5.070;2023-07-22T08:57:11;101458.84;;;20.67
77599;BMP280;66758;52.078;5.070;2023-07-22T08:59:37;101458.72;;;20.78
77599;BMP280;66758;52.078;5.070;2023-07-22T09:02:03;101448.53;;;20.64
77599;BMP280;66758;52.078;5.070;2023-07-22T09:04:30;101451.00;;;20.93
77599;BMP280;66758;52.078;5.070;2023-07-22T09:06:56;101457.41;;;20.90
77599;BMP280;66758;52.078;5.070;2023-07-22T09:09:22;101456.44;;;20.69
77599;BMP280;66758;52.078;5.070;2023-07-22T09:11:49;101450.16;;;20.99
77599;BMP280;66758;52.078;5.070;2023-07-22T09:14:18;101455.34;;;21.35
77599;BMP280;66758;52.078;5.070;2023-07-22T09:16:44;101458.00;;;21.11
77599;BMP280;66758;52.078;5.070;2023-07-22T09:19:10;101457.94;;;20.78
77599;BMP280;66758;52.078;5.070;2023-07-22T09:21:36;101455.91;;;20.82
77599;BMP280;66758;52.078;5.070;2023-07-22T09:24:02;101453.97;;;20.31
77599;BMP280;66758;52.078;5.070;2023-07-22T09:26:32;101456.97;;;20.57
77599;BMP280;66758;52.078;5.070;2023-07-22T09:28:58;101462.00;;;20.18
77599;BMP280;66758;52.078;5.070;2023-07-22T09:31:26;101462.25;;;20.38
77599;BMP280;66758;52.078;5.070;2023-07-22T09:33:52;101462.50;;;20.61
77599;BMP280;66758;52.078;5.070;2023-07-22T09:36:20;101455.38;;;20.56
77599;BMP280;66758;52.078;5.070;2023-07-22T09:38:59;101454.50;;;20.66
77599;BMP280;66758;52.078;5.070;2023-07-22T09:41:28;101458.53;;;20.58
77599;BMP280;66758;52.078;5.070;2023-07-22T09:43:54;101456.19;;;20.53
77599;BMP280;66758;52.078;5.070;2023-07-22T09:46:19;101453.03;;;20.89
77599;BMP280;66758;52.078;5.070;2023-07-22T09:48:46;101452.75;;;21.17
77599;BMP280;66758;52.078;5.070;2023-07-22T09:51:15;101449.91;;;21.20
77599;BMP280;66758;52.078;5.070;2023-07-22T09:53:46;101443.44;;;21.61
77599;BMP280;66758;52.078;5.070;2023-07-22T09:56:11;101440.47;;;21.75
77599;BMP280;66758;52.078;5.070;2023-07-22T09:58:38;101438.56;;;23.28
77599;BMP280;66758;52.078;5.070;2023-07-22T10:01:05;101425.19;;;23.55
77599;BMP280;66758;52.078;5.070;2023-07-22T10:03:32;101427.56;;;23.37
77599;BMP280;66758;52.078;5.070;2023-07-22T10:06:02;101426.47;;;22.95
77599;BMP280;66758;52.078;5.070;2023-07-22T10:08:36;101444.97;;;21.92
77599;BMP280;66758;52.078;5.070;2023-07-22T10:11:05;101444.56;;;21.67
77599;BMP280;66758;52.078;5.070;2023-07-22T10:13:37;101443.91;;;21.56
77599;BMP280;66758;52.078;5.070;2023-07-22T10:16:03;101452.50;;;21.38
77599;BMP280;66758;52.078;5.070;2023-07-22T10:18:34;101442.34;;;21.21
77599;BMP280;66758;52.078;5.070;2023-07-22T10:21:02;101447.16;;;20.83
77599;BMP280;66758;52.078;5.070;2023-07-22T10:23:29;101446.69;;;20.88
77599;BMP280;66758;52.078;5.070;2023-07-22T10:25:56;101451.72;;;21.04
77599;BMP280;66758;52.078;5.070;2023-07-22T10:28:23;101454.72;;;20.83
77599;BMP280;66758;52.078;5.070;2023-07-22T10:30:49;101450.97;;;20.62
77599;BMP280;66758;52.078;5.070;2023-07-22T10:33:16;101454.31;;;20.40
77599;BMP280;66758;52.078;5.070;2023-07-22T10:35:43;101456.53;;;20.04
77599;BMP280;66758;52.078;5.070;2023-07-22T10:38:14;101450.16;;;20.10
77599;BMP280;66758;52.078;5.070;2023-07-22T10:40:50;101459.41;;;19.90
77599;BMP280;66758;52.078;5.070;2023-07-22T10:43:17;101465.41;;;19.85
77599;BMP280;66758;52.078;5.070;2023-07-22T10:45:49;101458.16;;;20.01
77599;BMP280;66758;52.078;5.070;2023-07-22T10:48:15;101464.34;;;20.27
77599;BMP280;66758;52.078;5.070;2023-07-22T10:50:45;101462.72;;;20.29
77599;BMP280;66758;52.078;5.070;2023-07-22T10:56:15;101450.66;;;20.46
77599;BMP280;66758;52.078;5.070;2023-07-22T11:04:25;101460.91;;;18.82
77599;BMP280;66758;52.078;5.070;2023-07-22T11:06:58;101453.38;;;18.72
77599;BMP280;66758;52.078;5.070;2023-07-22T11:11:54;101454.59;;;18.61
77599;BMP280;66758;52.078;5.070;2023-07-22T11:14:24;101461.72;;;18.69
77599;BMP280;66758;52.078;5.070;2023-07-22T11:16:50;101451.78;;;18.85
77599;BMP280;66758;52.078;5.070;2023-07-22T11:19:19;101454.50;;;19.24
77599;BMP280;66758;52.078;5.070;2023-07-22T11:21:47;101456.94;;;18.91
77599;BMP280;66758;52.078;5.070;2023-07-22T11:24:13;101445.38;;;19.27
77599;BMP280;66758;52.078;5.070;2023-07-22T11:26:39;101446.19;;;18.22
77599;BMP280;66758;52.078;5.070;2023-07-22T11:29:06;101433.13;;;18.43
77599;BMP280;66758;52.078;5.070;2023-07-22T11:31:36;101437.91;;;18.82
77599;BMP280;66758;52.078;5.070;2023-07-22T11:34:03;101444.22;;;18.22
77599;BMP280;66758;52.078;5.070;2023-07-22T11:36:29;101434.72;;;18.44
77599;BMP280;66758;52.078;5.070;2023-07-22T11:39:09;101436.28;;;18.17
77599;BMP280;66758;52.078;5.070;2023-07-22T11:41:35;101441.38;;;17.90
77599;BMP280;66758;52.078;5.070;2023-07-22T11:44:02;101435.03;;;17.97
77599;BMP280;66758;52.078;5.070;2023-07-22T11:46:28;101435.03;;;17.97
77599;BMP280;66758;52.078;5.070;2023-07-22T11:48:54;101429.13;;;18.06
77599;BMP280;66758;52.078;5.070;2023-07-22T11:51:22;101429.91;;;18.06
77599;BMP280;66758;52.078;5.070;2023-07-22T11:53:49;101429.13;;;18.02
77599;BMP280;66758;52.078;5.070;2023-07-22T11:56:33;101427.13;;;17.99
77599;BMP280;66758;52.078;5.070;2023-07-22T11:58:58;101424.78;;;18.08
77599;BMP280;66758;52.078;5.070;2023-07-22T12:01:23;101430.31;;;18.12
77599;BMP280;66758;52.078;5.070;2023-07-22T12:03:54;101425.53;;;17.98
77599;BMP280;66758;52.078;5.070;2023-07-22T12:06:20;101431.50;;;18.00
77599;BMP280;66758;52.078;5.070;2023-07-22T12:08:51;101435.06;;;18.04
77599;BMP280;66758;52.078;5.070;2023-07-22T12:13:43;101434.69;;;18.09
77599;BMP280;66758;52.078;5.070;2023-07-22T12:16:23;101430.75;;;18.17
77599;BMP280;66758;52.078;5.070;2023-07-22T12:18:49;101418.09;;;18.23
77599;BMP280;66758;52.078;5.070;2023-07-22T12:21:15;101422.03;;;18.26
77599;BMP280;66758;52.078;5.070;2023-07-22T12:23:41;101424.44;;;18.63
77599;BMP280;66758;52.078;5.070;2023-07-22T12:26:07;101420.44;;;18.85
77599;BMP280;66758;52.078;5.070;2023-07-22T12:28:33;101413.19;;;19.30
77599;BMP280;66758;52.078;5.070;2023-07-22T12:30:58;101411.03;;;20.32
77599;BMP280;66758;52.078;5.070;2023-07-22T12:33:24;101415.06;;;21.05
77599;BMP280;66758;52.078;5.070;2023-07-22T12:35:50;101412.38;;;21.29
77599;BMP280;66758;52.078;5.070;2023-07-22T12:38:16;101422.44;;;20.85
77599;BMP280;66758;52.078;5.070;2023-07-22T12:40:42;101420.38;;;20.04
77599;BMP280;66758;52.078;5.070;2023-07-22T12:43:07;101420.94;;;19.74
77599;BMP280;66758;52.078;5.070;2023-07-22T12:45:33;101429.31;;;19.70
77599;BMP280;66758;52.078;5.070;2023-07-22T12:47:59;101428.44;;;19.84
77599;BMP280;66758;52.078;5.070;2023-07-22T12:50:24;101431.19;;;19.95
77599;BMP280;66758;52.078;5.070;2023-07-22T12:52:50;101435.56;;;19.89
77599;BMP280;66758;52.078;5.070;2023-07-22T12:55:15;101433.50;;;20.03
77599;BMP280;66758;52.078;5.070;2023-07-22T12:57:41;101436.06;;;19.73
77599;BMP280;66758;52.078;5.070;2023-07-22T13:00:06;101430.38;;;19.94
77599;BMP280;66758;52.078;5.070;2023-07-22T13:02:35;101430.41;;;19.87
77599;BMP280;66758;52.078;5.070;2023-07-22T13:05:01;101434.53;;;19.58
77599;BMP280;66758;52.078;5.070;2023-07-22T13:07:26;101444.50;;;19.45
77599;BMP280;66758;52.078;5.070;2023-07-22T13:09:52;101451.34;;;19.22
77599;BMP280;66758;52.078;5.070;2023-07-22T13:12:20;101453.75;;;19.03
77599;BMP280;66758;52.078;5.070;2023-07-22T13:14:46;101455.34;;;19.00
77599;BMP280;66758;52.078;5.070;2023-07-22T13:17:11;101459.31;;;18.99
77599;BMP280;66758;52.078;5.070;2023-07-22T13:19:36;101467.97;;;18.13
77599;BMP280;66758;52.078;5.070;2023-07-22T13:22:03;101452.06;;;17.88
77599;BMP280;66758;52.078;5.070;2023-07-22T13:24:29;101451.28;;;17.98
77599;BMP280;66758;52.078;5.070;2023-07-22T13:26:54;101451.34;;;18.13
77599;BMP280;66758;52.078;5.070;2023-07-22T13:29:21;101451.72;;;18.15
77599;BMP280;66758;52.078;5.070;2023-07-22T13:31:47;101449.78;;;18.40
77599;BMP280;66758;52.078;5.070;2023-07-22T13:34:12;101443.06;;;18.44
77599;BMP280;66758;52.078;5.070;2023-07-22T13:36:38;101439.09;;;18.63
77599;BMP280;66758;52.078;5.070;2023-07-22T13:39:03;101432.34;;;18.71
77599;BMP280;66758;52.078;5.070;2023-07-22T13:41:30;101423.25;;;18.60
77599;BMP280;66758;52.078;5.070;2023-07-22T13:43:55;101415.72;;;18.61
77599;BMP280;66758;52.078;5.070;2023-07-22T13:46:21;101421.63;;;18.80
77599;BMP280;66758;52.078;5.070;2023-07-22T13:48:46;101424.03;;;18.93
77599;BMP280;66758;52.078;5.070;2023-07-22T13:51:12;101412.44;;;19.19
77599;BMP280;66758;52.078;5.070;2023-07-22T13:53:38;101419.13;;;19.43
77599;BMP280;66758;52.078;5.070;2023-07-22T13:56:05;101424.25;;;19.51
77599;BMP280;66758;52.078;5.070;2023-07-22T13:58:30;101420.25;;;19.56
77599;BMP280;66758;52.078;5.070;2023-07-22T14:00:55;101417.31;;;19.84
77599;BMP280;66758;52.078;5.070;2023-07-22T14:03:21;101416.91;;;19.82
77599;BMP280;66758;52.078;5.070;2023-07-22T14:05:47;101410.16;;;19.83